createdAt,value
2022-11-13T00:00:17.178Z,6.34
2022-11-13T00:01:17.160Z,6.34
2022-11-13T00:02:17.206Z,6.46
2022-11-13T00:03:17.130Z,6.42
2022-11-13T00:04:17.122Z,6.47
2022-11-13T00:05:17.117Z,6.49
2022-11-13T00:06:17.111Z,6.38
2022-11-13T00:07:17.255Z,6.35
2022-11-13T00:08:17.084Z,6.43
2022-11-13T00:09:17.075Z,6.27
2022-11-13T00:10:17.076Z,6.28
2022-11-13T00:11:17.100Z,6.12
2022-11-13T00:12:17.050Z,6.09
2022-11-13T00:13:17.022Z,6.11
2022-11-13T00:14:17.021Z,6.12
2022-11-13T00:15:17.019Z,6.09
2022-11-13T00:16:16.990Z,6.08
2022-11-13T00:17:17.011Z,6.09
2022-11-13T00:18:16.975Z,6.15
2022-11-13T00:19:16.975Z,6.13
2022-11-13T00:20:16.967Z,6.09
2022-11-13T00:21:16.989Z,6.09
2022-11-13T00:22:16.939Z,6.15
2022-11-13T00:23:17.047Z,6.09
2022-11-13T00:24:16.915Z,5.98
2022-11-13T00:25:16.916Z,6.00
2022-11-13T00:26:16.893Z,5.94
2022-11-13T00:27:16.893Z,5.97
2022-11-13T00:28:16.904Z,5.93
2022-11-13T00:29:16.869Z,6.02
2022-11-13T00:30:19.462Z,5.95
2022-11-13T00:31:16.847Z,5.97
2022-11-13T00:32:16.841Z,5.91
2022-11-13T00:33:37.879Z,5.91
2022-11-13T00:34:45.801Z,5.88
2022-11-13T00:35:17.832Z,5.82
2022-11-13T00:36:16.805Z,5.87
2022-11-13T00:37:16.794Z,5.95
2022-11-13T00:38:16.764Z,5.93
2022-11-13T00:39:16.894Z,5.91
2022-11-13T00:40:16.740Z,5.88
2022-11-13T00:41:16.748Z,5.79
2022-11-13T00:42:16.724Z,5.77
2022-11-13T00:43:16.752Z,5.75
2022-11-13T00:44:16.691Z,5.70
2022-11-13T00:45:16.688Z,5.54
2022-11-13T00:46:16.693Z,5.48
2022-11-13T00:47:16.671Z,5.39
2022-11-13T00:48:16.657Z,5.41
2022-11-13T00:49:16.685Z,5.39
2022-11-13T00:50:16.636Z,5.33
2022-11-13T00:51:16.630Z,5.27
2022-11-13T00:52:16.620Z,5.43
2022-11-13T00:53:18.191Z,5.43
2022-11-13T00:54:16.590Z,5.55
2022-11-13T00:55:16.717Z,5.52
2022-11-13T00:56:16.589Z,5.50
2022-11-13T00:57:16.570Z,5.48
2022-11-13T00:58:16.542Z,5.51
2022-11-13T00:59:16.548Z,5.51
2022-11-13T01:00:16.538Z,5.48
2022-11-13T01:01:16.608Z,5.55
2022-11-13T01:02:16.537Z,5.54
2022-11-13T01:03:16.503Z,5.52
2022-11-13T01:04:16.513Z,5.59
2022-11-13T01:05:16.471Z,5.51
2022-11-13T01:06:16.463Z,5.36
2022-11-13T01:07:16.536Z,5.33
2022-11-13T01:08:16.445Z,5.39
2022-11-13T01:09:16.466Z,5.27
2022-11-13T01:10:16.435Z,5.24
2022-11-13T01:11:16.534Z,5.19
2022-11-13T01:12:16.397Z,5.16
2022-11-13T01:13:16.390Z,5.16
2022-11-13T01:14:16.384Z,5.11
2022-11-13T01:15:16.374Z,5.11
2022-11-13T01:16:16.358Z,5.15
2022-11-13T01:17:16.354Z,5.06
2022-11-13T01:18:16.343Z,5.09
2022-11-13T01:19:16.333Z,5.12
2022-11-13T01:20:16.326Z,5.11
2022-11-13T01:21:16.323Z,5.06
2022-11-13T01:22:16.293Z,5.19
2022-11-13T01:23:16.331Z,5.22
2022-11-13T01:24:16.292Z,5.27
2022-11-13T01:25:16.261Z,5.33
2022-11-13T01:26:16.267Z,5.32
2022-11-13T01:27:16.371Z,5.30
2022-11-13T01:28:16.235Z,5.27
2022-11-13T01:29:16.261Z,5.22
2022-11-13T01:30:16.215Z,5.24
2022-11-13T01:31:16.210Z,5.22
2022-11-13T01:32:16.202Z,5.33
2022-11-13T01:33:16.189Z,5.36
2022-11-13T01:34:16.163Z,5.44
2022-11-13T01:35:16.201Z,5.52
2022-11-13T01:36:16.155Z,5.51
2022-11-13T01:37:16.154Z,5.58
2022-11-13T01:38:16.134Z,5.65
2022-11-13T01:39:16.139Z,5.65
2022-11-13T01:40:16.105Z,5.62
2022-11-13T01:41:21.840Z,5.73
2022-11-13T01:42:17.091Z,5.67
2022-11-13T01:43:16.212Z,5.65
2022-11-13T01:44:16.078Z,5.70
2022-11-13T01:45:16.073Z,5.61
2022-11-13T01:46:16.053Z,5.50
2022-11-13T01:47:16.041Z,5.58
2022-11-13T01:48:16.020Z,5.57
2022-11-13T01:49:16.011Z,5.58
2022-11-13T01:50:16.010Z,5.58
2022-11-13T01:51:16.000Z,5.52
2022-11-13T01:52:15.990Z,5.55
2022-11-13T01:53:15.965Z,5.57
2022-11-13T01:54:15.979Z,5.66
2022-11-13T01:55:15.962Z,5.90
2022-11-13T01:56:15.939Z,5.93
2022-11-13T01:57:15.989Z,5.93
2022-11-13T01:58:15.930Z,5.97
2022-11-13T01:59:16.036Z,5.94
2022-11-13T02:00:15.896Z,6.03
2022-11-13T02:01:15.911Z,6.05
2022-11-13T02:02:15.898Z,6.05
2022-11-13T02:03:15.879Z,6.12
2022-11-13T02:04:15.856Z,6.06
2022-11-13T02:05:15.848Z,6.11
2022-11-13T02:06:15.840Z,6.08
2022-11-13T02:07:15.894Z,6.16
2022-11-13T02:08:15.836Z,6.16
2022-11-13T02:09:15.804Z,6.15
2022-11-13T02:10:15.800Z,6.25
2022-11-13T02:11:15.800Z,6.21
2022-11-13T02:12:15.772Z,6.31
2022-11-13T02:13:15.779Z,6.21
2022-11-13T02:14:15.763Z,6.25
2022-11-13T02:15:15.850Z,6.25
2022-11-13T02:16:15.736Z,6.32
2022-11-13T02:17:15.724Z,6.30
2022-11-13T02:18:15.740Z,6.38
2022-11-13T02:19:15.738Z,6.38
2022-11-13T02:20:15.683Z,6.40
2022-11-13T02:21:15.676Z,6.43
2022-11-13T02:22:15.662Z,6.47
2022-11-13T02:23:15.658Z,6.55
2022-11-13T02:24:15.669Z,6.61
2022-11-13T02:25:15.646Z,6.70
2022-11-13T02:26:15.648Z,6.71
2022-11-13T02:27:15.630Z,6.82
2022-11-13T02:28:15.604Z,6.91
2022-11-13T02:29:15.601Z,6.97
2022-11-13T02:30:16.458Z,6.89
2022-11-13T02:31:15.690Z,7.00
2022-11-13T02:32:15.568Z,7.07
2022-11-13T02:33:15.545Z,7.13
2022-11-13T02:34:15.562Z,7.15
2022-11-13T02:35:15.551Z,7.18
2022-11-13T02:36:15.519Z,7.19
2022-11-13T02:37:15.514Z,7.19
2022-11-13T02:38:15.528Z,7.19
2022-11-13T02:39:15.491Z,7.34
2022-11-13T02:40:15.481Z,7.37
2022-11-13T02:41:15.474Z,7.29
2022-11-13T02:42:15.462Z,7.40
2022-11-13T02:43:15.472Z,7.43
2022-11-13T02:44:15.455Z,7.47
2022-11-13T02:45:15.435Z,7.49
2022-11-13T02:46:15.434Z,7.58
2022-11-13T02:47:15.523Z,7.68
2022-11-13T02:48:15.456Z,7.69
2022-11-13T02:49:15.383Z,7.76
2022-11-13T02:50:15.386Z,7.78
2022-11-13T02:51:15.386Z,7.81
2022-11-13T02:52:15.412Z,7.80
2022-11-13T02:53:15.342Z,7.80
2022-11-13T02:54:17.097Z,7.92
2022-11-13T02:55:15.328Z,7.95
2022-11-13T02:56:15.308Z,7.92
2022-11-13T02:57:15.307Z,7.95
2022-11-13T02:58:15.327Z,7.92
2022-11-13T02:59:15.274Z,7.98
2022-11-13T03:00:15.289Z,7.98
2022-11-13T03:01:15.351Z,8.04
2022-11-13T03:02:15.246Z,8.06
2022-11-13T03:03:29.069Z,8.12
2022-11-13T03:04:16.239Z,8.20
2022-11-13T03:05:15.222Z,8.14
2022-11-13T03:06:15.216Z,8.17
2022-11-13T03:07:15.223Z,8.14
2022-11-13T03:08:15.184Z,8.24
2022-11-13T03:09:15.172Z,8.20
2022-11-13T03:10:15.218Z,8.21
2022-11-13T03:11:15.190Z,8.21
2022-11-13T03:12:15.143Z,8.19
2022-11-13T03:13:15.130Z,8.19
2022-11-13T03:14:15.119Z,8.23
2022-11-13T03:15:15.123Z,8.21
2022-11-13T03:16:15.094Z,8.26
2022-11-13T03:17:15.092Z,8.26
2022-11-13T03:18:15.092Z,8.23
2022-11-13T03:19:15.203Z,8.24
2022-11-13T03:20:15.056Z,8.23
2022-11-13T03:21:15.043Z,8.29
2022-11-13T03:22:15.034Z,8.32
2022-11-13T03:23:15.027Z,8.32
2022-11-13T03:24:15.011Z,8.24
2022-11-13T03:25:15.025Z,8.23
2022-11-13T03:26:14.994Z,8.23
2022-11-13T03:27:14.975Z,8.26
2022-11-13T03:28:15.006Z,8.20
2022-11-13T03:29:14.974Z,8.24
2022-11-13T03:30:14.952Z,8.26
2022-11-13T03:31:14.946Z,8.26
2022-11-13T03:32:14.931Z,8.28
2022-11-13T03:33:14.920Z,8.28
2022-11-13T03:34:14.908Z,8.32
2022-11-13T03:35:15.022Z,8.31
2022-11-13T03:36:14.893Z,8.32
2022-11-13T03:37:14.885Z,8.34
2022-11-13T03:38:14.881Z,8.38
2022-11-13T03:39:14.855Z,8.37
2022-11-13T03:40:14.845Z,8.42
2022-11-13T03:41:14.853Z,8.32
2022-11-13T03:42:14.830Z,8.46
2022-11-13T03:43:14.814Z,8.34
2022-11-13T03:44:14.819Z,8.39
2022-11-13T03:45:14.785Z,8.41
2022-11-13T03:46:14.812Z,8.44
2022-11-13T03:47:14.802Z,8.37
2022-11-13T03:48:14.761Z,8.41
2022-11-13T03:49:14.767Z,8.44
2022-11-13T03:50:14.748Z,8.37
2022-11-13T03:51:14.838Z,8.37
2022-11-13T03:52:14.733Z,8.35
2022-11-13T03:53:14.701Z,8.34
2022-11-13T03:54:14.721Z,8.49
2022-11-13T03:55:14.687Z,8.42
2022-11-13T03:56:14.679Z,8.47
2022-11-13T03:57:14.670Z,8.52
2022-11-13T03:58:14.659Z,8.49
2022-11-13T03:59:14.646Z,8.52
2022-11-13T04:00:14.638Z,8.46
2022-11-13T04:01:14.656Z,8.53
2022-11-13T04:02:14.614Z,8.52
2022-11-13T04:03:14.611Z,8.52
2022-11-13T04:04:14.585Z,8.50
2022-11-13T04:05:17.526Z,8.50
2022-11-13T04:06:15.576Z,8.50
2022-11-13T04:07:14.754Z,8.52
2022-11-13T04:08:14.550Z,8.46
2022-11-13T04:09:14.547Z,8.47
2022-11-13T04:10:14.546Z,8.46
2022-11-13T04:11:14.520Z,8.50
2022-11-13T04:12:14.527Z,8.49
2022-11-13T04:13:14.510Z,8.53
2022-11-13T04:14:14.489Z,8.52
2022-11-13T04:15:14.480Z,8.47
2022-11-13T04:16:14.470Z,8.46
2022-11-13T04:17:14.463Z,8.46
2022-11-13T04:18:14.486Z,8.44
2022-11-13T04:19:14.454Z,8.37
2022-11-13T04:20:14.432Z,8.46
2022-11-13T04:21:14.414Z,8.47
2022-11-13T04:22:14.401Z,8.42
2022-11-13T04:23:14.498Z,8.34
2022-11-13T04:24:14.400Z,8.38
2022-11-13T04:25:14.368Z,8.37
2022-11-13T04:26:14.357Z,8.38
2022-11-13T04:27:14.358Z,8.39
2022-11-13T04:28:14.361Z,8.32
2022-11-13T04:29:14.323Z,8.31
2022-11-13T04:30:14.330Z,8.39
2022-11-13T04:31:14.354Z,8.37
2022-11-13T04:32:14.304Z,8.37
2022-11-13T04:33:14.284Z,8.35
2022-11-13T04:34:14.284Z,8.39
2022-11-13T04:35:14.257Z,8.38
2022-11-13T04:36:14.253Z,8.38
2022-11-13T04:37:14.261Z,8.49
2022-11-13T04:38:14.239Z,8.50
2022-11-13T04:39:14.321Z,8.47
2022-11-13T04:40:14.219Z,8.47
2022-11-13T04:41:14.204Z,8.55
2022-11-13T04:42:14.225Z,8.53
2022-11-13T04:43:14.187Z,8.52
2022-11-13T04:44:21.791Z,8.52
2022-11-13T04:45:14.208Z,8.44
2022-11-13T04:46:14.181Z,8.47
2022-11-13T04:47:14.151Z,8.47
2022-11-13T04:48:14.157Z,8.57
2022-11-13T04:49:14.123Z,8.52
2022-11-13T04:50:14.122Z,8.55
2022-11-13T04:51:14.099Z,8.56
2022-11-13T04:52:14.097Z,8.60
2022-11-13T04:53:14.073Z,8.50
2022-11-13T04:54:14.076Z,8.53
2022-11-13T04:55:14.169Z,8.52
2022-11-13T04:56:14.045Z,8.59
2022-11-13T04:57:14.039Z,8.62
2022-11-13T04:58:14.014Z,8.57
2022-11-13T04:59:14.009Z,8.52
2022-11-13T05:00:14.018Z,8.57
2022-11-13T05:01:13.998Z,8.56
2022-11-13T05:02:13.999Z,8.62
2022-11-13T05:03:13.971Z,8.55
2022-11-13T05:04:13.961Z,8.63
2022-11-13T05:05:13.957Z,8.60
2022-11-13T05:06:13.942Z,8.57
2022-11-13T05:07:13.966Z,8.62
2022-11-13T05:08:13.916Z,8.65
2022-11-13T05:09:13.910Z,8.52
2022-11-13T05:10:13.925Z,8.67
2022-11-13T05:11:14.003Z,8.60
2022-11-13T05:12:13.870Z,8.60
2022-11-13T05:13:13.885Z,8.62
2022-11-13T05:14:13.858Z,8.59
2022-11-13T05:15:13.856Z,8.65
2022-11-13T05:16:13.825Z,8.68
2022-11-13T05:17:13.826Z,8.72
2022-11-13T05:18:13.808Z,8.67
2022-11-13T05:19:13.813Z,8.74
2022-11-13T05:20:13.797Z,8.75
2022-11-13T05:21:13.800Z,8.70
2022-11-13T05:22:13.780Z,8.74
2022-11-13T05:23:13.802Z,8.85
2022-11-13T05:24:13.738Z,8.74
2022-11-13T05:25:13.737Z,8.86
2022-11-13T05:26:13.730Z,8.71
2022-11-13T05:27:17.360Z,8.71
2022-11-13T05:28:23.323Z,8.85
2022-11-13T05:29:13.720Z,8.74
2022-11-13T05:30:13.704Z,8.78
2022-11-13T05:31:13.691Z,8.71
2022-11-13T05:32:13.658Z,8.80
2022-11-13T05:33:13.653Z,8.86
2022-11-13T05:34:13.668Z,8.81
2022-11-13T05:35:13.630Z,8.74
2022-11-13T05:36:13.623Z,8.80
2022-11-13T05:37:13.674Z,8.74
2022-11-13T05:38:13.604Z,8.75
2022-11-13T05:39:13.592Z,8.88
2022-11-13T05:40:13.589Z,8.81
2022-11-13T05:41:13.578Z,8.89
2022-11-13T05:42:13.548Z,8.88
2022-11-13T05:43:13.654Z,8.86
2022-11-13T05:44:13.571Z,8.78
2022-11-13T05:45:13.543Z,8.88
2022-11-13T05:46:13.510Z,8.80
2022-11-13T05:47:13.498Z,8.85
2022-11-13T05:48:13.490Z,8.88
2022-11-13T05:49:13.490Z,8.88
2022-11-13T05:50:13.494Z,8.89
2022-11-13T05:51:13.469Z,8.96
2022-11-13T05:52:13.448Z,8.99
2022-11-13T05:53:13.450Z,8.96
2022-11-13T05:54:13.430Z,8.93
2022-11-13T05:55:13.423Z,9.03
2022-11-13T05:56:13.441Z,8.89
2022-11-13T05:57:13.402Z,9.01
2022-11-13T05:58:13.390Z,9.04
2022-11-13T05:59:13.508Z,8.99
2022-11-13T06:00:13.370Z,9.03
2022-11-13T06:01:13.370Z,8.99
2022-11-13T06:02:13.407Z,9.03
2022-11-13T06:03:13.371Z,8.99
2022-11-13T06:04:13.334Z,9.03
2022-11-13T06:05:13.310Z,9.06
2022-11-13T06:06:13.314Z,9.09
2022-11-13T06:07:13.362Z,9.06
2022-11-13T06:08:13.295Z,9.06
2022-11-13T06:09:13.265Z,9.09
2022-11-13T06:10:13.264Z,9.11
2022-11-13T06:11:13.254Z,9.06
2022-11-13T06:12:13.238Z,9.15
2022-11-13T06:13:13.273Z,9.08
2022-11-13T06:14:13.225Z,9.12
2022-11-13T06:15:13.323Z,9.09
2022-11-13T06:16:13.204Z,9.04
2022-11-13T06:17:13.201Z,9.09
2022-11-13T06:18:13.177Z,9.14
2022-11-13T06:19:13.182Z,9.18
2022-11-13T06:20:13.156Z,9.12
2022-11-13T06:21:13.185Z,9.18
2022-11-13T06:22:13.126Z,9.04
2022-11-13T06:23:13.120Z,9.14
2022-11-13T06:24:13.128Z,9.09
2022-11-13T06:25:13.115Z,9.16
2022-11-13T06:26:13.093Z,9.15
2022-11-13T06:27:13.082Z,9.15
2022-11-13T06:28:13.121Z,9.16
2022-11-13T06:29:13.065Z,9.18
2022-11-13T06:30:13.063Z,9.22
2022-11-13T06:31:13.154Z,9.26
2022-11-13T06:32:13.053Z,9.19
2022-11-13T06:33:13.026Z,9.18
2022-11-13T06:34:13.010Z,9.23
2022-11-13T06:35:13.018Z,9.22
2022-11-13T06:36:12.984Z,9.19
2022-11-13T06:37:12.994Z,9.16
2022-11-13T06:38:12.966Z,9.19
2022-11-13T06:39:13.068Z,9.23
2022-11-13T06:40:12.951Z,9.27
2022-11-13T06:41:12.937Z,9.24
2022-11-13T06:42:12.943Z,9.27
2022-11-13T06:43:12.923Z,9.29
2022-11-13T06:44:12.912Z,9.29
2022-11-13T06:45:12.937Z,9.29
2022-11-13T06:46:12.909Z,9.34
2022-11-13T06:47:12.905Z,9.26
2022-11-13T06:48:12.866Z,9.27
2022-11-13T06:49:12.867Z,9.33
2022-11-13T06:50:12.844Z,9.33
2022-11-13T06:51:12.824Z,9.29
2022-11-13T06:52:12.866Z,9.26
2022-11-13T06:53:12.845Z,9.41
2022-11-13T06:54:12.805Z,9.24
2022-11-13T06:55:12.791Z,9.33
2022-11-13T06:56:12.781Z,9.32
2022-11-13T06:57:12.783Z,9.34
2022-11-13T06:58:12.761Z,9.32
2022-11-13T06:59:12.768Z,9.36
2022-11-13T07:00:12.757Z,9.37
2022-11-13T07:01:12.827Z,9.34
2022-11-13T07:02:12.726Z,9.37
2022-11-13T07:03:12.819Z,9.37
2022-11-13T07:04:12.696Z,9.41
2022-11-13T07:05:12.674Z,9.47
2022-11-13T07:06:12.709Z,9.41
2022-11-13T07:07:12.701Z,9.42
2022-11-13T07:08:12.670Z,9.42
2022-11-13T07:09:12.639Z,9.40
2022-11-13T07:10:12.625Z,9.51
2022-11-13T07:11:12.628Z,9.45
2022-11-13T07:12:12.620Z,9.48
2022-11-13T07:13:12.608Z,9.50
2022-11-13T07:14:12.624Z,9.52
2022-11-13T07:15:12.586Z,9.57
2022-11-13T07:16:17.536Z,9.62
2022-11-13T07:17:13.549Z,9.55
2022-11-13T07:18:12.539Z,9.55
2022-11-13T07:19:12.641Z,9.52
2022-11-13T07:20:12.538Z,9.65
2022-11-13T07:21:12.534Z,9.66
2022-11-13T07:22:12.514Z,9.67
2022-11-13T07:23:20.161Z,9.65
2022-11-13T07:24:16.741Z,9.65
2022-11-13T07:25:12.509Z,9.67
2022-11-13T07:26:12.486Z,9.65
2022-11-13T07:27:12.448Z,9.65
2022-11-13T07:28:12.438Z,9.66
2022-11-13T07:29:12.441Z,9.73
2022-11-13T07:30:12.454Z,9.69
2022-11-13T07:31:12.427Z,9.75
2022-11-13T07:32:12.401Z,9.78
2022-11-13T07:33:12.396Z,9.77
2022-11-13T07:34:12.386Z,9.73
2022-11-13T07:35:12.503Z,9.80
2022-11-13T07:36:12.363Z,9.80
2022-11-13T07:37:12.348Z,9.83
2022-11-13T07:38:12.360Z,9.81
2022-11-13T07:39:12.322Z,9.78
2022-11-13T07:40:12.311Z,9.87
2022-11-13T07:41:12.342Z,9.78
2022-11-13T07:42:12.293Z,9.81
2022-11-13T07:43:12.277Z,9.77
2022-11-13T07:44:21.906Z,9.85
2022-11-13T07:45:13.277Z,9.93
2022-11-13T07:46:12.264Z,9.87
2022-11-13T07:47:12.268Z,9.96
2022-11-13T07:48:12.231Z,9.88
2022-11-13T07:49:12.227Z,9.93
2022-11-13T07:50:12.220Z,9.85
2022-11-13T07:51:12.335Z,9.93
2022-11-13T07:52:12.190Z,9.94
2022-11-13T07:53:12.205Z,9.90
2022-11-13T07:54:12.164Z,9.94
2022-11-13T07:55:12.162Z,9.87
2022-11-13T07:56:12.141Z,9.88
2022-11-13T07:57:35.972Z,9.99
2022-11-13T07:58:35.938Z,9.94
2022-11-13T07:59:35.938Z,10.02
2022-11-13T08:00:36.049Z,9.99
2022-11-13T08:01:35.912Z,9.91
2022-11-13T08:02:35.882Z,9.91
2022-11-13T08:03:35.900Z,9.94
2022-11-13T08:04:35.865Z,9.96
2022-11-13T08:05:35.845Z,9.98
2022-11-13T08:06:35.945Z,9.91
2022-11-13T08:07:35.828Z,10.02
2022-11-13T08:08:35.839Z,9.91
2022-11-13T08:09:35.819Z,10.03
2022-11-13T08:10:35.818Z,9.99
2022-11-13T08:11:35.821Z,10.06
2022-11-13T08:12:35.772Z,10.06
2022-11-13T08:13:35.799Z,10.05
2022-11-13T08:14:35.771Z,10.09
2022-11-13T08:15:35.751Z,10.08
2022-11-13T08:16:35.745Z,10.01
2022-11-13T08:17:35.734Z,10.10
2022-11-13T08:18:35.737Z,10.08
2022-11-13T08:19:35.706Z,10.09
2022-11-13T08:20:35.691Z,10.02
2022-11-13T08:21:35.700Z,10.16
2022-11-13T08:22:35.801Z,10.16
2022-11-13T08:23:35.668Z,10.03
2022-11-13T08:24:35.669Z,10.17
2022-11-13T08:25:35.648Z,10.14
2022-11-13T08:26:35.653Z,10.03
2022-11-13T08:27:35.635Z,10.14
2022-11-13T08:28:35.608Z,10.23
2022-11-13T08:29:35.601Z,10.17
2022-11-13T08:30:35.608Z,10.17
2022-11-13T08:31:35.583Z,10.14
2022-11-13T08:32:35.577Z,10.10
2022-11-13T08:33:35.563Z,10.14
2022-11-13T08:34:35.553Z,10.21
2022-11-13T08:35:35.539Z,10.14
2022-11-13T08:36:35.527Z,10.09
2022-11-13T08:37:35.555Z,10.18
2022-11-13T08:38:35.645Z,10.18
2022-11-13T08:39:35.508Z,10.16
2022-11-13T08:40:35.523Z,10.14
2022-11-13T08:41:35.485Z,10.10
2022-11-13T08:42:35.465Z,10.12
2022-11-13T08:43:35.460Z,10.16
2022-11-13T08:44:35.433Z,10.26
2022-11-13T08:45:35.432Z,10.27
2022-11-13T08:46:35.421Z,10.26
2022-11-13T08:47:35.418Z,10.28
2022-11-13T08:48:35.419Z,10.26
2022-11-13T08:49:35.394Z,10.35
2022-11-13T08:50:35.371Z,10.35
2022-11-13T08:51:35.362Z,10.34
2022-11-13T08:52:35.365Z,10.31
2022-11-13T08:53:35.369Z,10.31
2022-11-13T08:54:35.438Z,10.35
2022-11-13T08:55:35.324Z,10.35
2022-11-13T08:56:35.308Z,10.31
2022-11-13T08:57:35.303Z,10.39
2022-11-13T08:58:35.305Z,10.39
2022-11-13T08:59:35.331Z,10.38
2022-11-13T09:00:35.272Z,10.35
2022-11-13T09:01:35.256Z,10.42
2022-11-13T09:02:35.263Z,10.43
2022-11-13T09:03:35.260Z,10.39
2022-11-13T09:04:35.249Z,10.42
2022-11-13T09:05:35.214Z,10.38
2022-11-13T09:06:35.236Z,10.43
2022-11-13T09:07:35.258Z,10.39
2022-11-13T09:08:35.210Z,10.39
2022-11-13T09:09:35.165Z,10.43
2022-11-13T09:10:35.284Z,10.39
2022-11-13T09:11:35.166Z,10.54
2022-11-13T09:12:35.144Z,10.60
2022-11-13T09:13:37.553Z,10.57
2022-11-13T09:14:36.121Z,10.64
2022-11-13T09:15:35.148Z,10.62
2022-11-13T09:16:35.097Z,10.62
2022-11-13T09:17:35.113Z,10.55
2022-11-13T09:18:35.086Z,10.60
2022-11-13T09:19:35.075Z,10.62
2022-11-13T09:20:35.045Z,10.61
2022-11-13T09:21:35.039Z,10.64
2022-11-13T09:22:35.039Z,10.64
2022-11-13T09:23:35.027Z,10.65
2022-11-13T09:24:35.027Z,10.65
2022-11-13T09:25:37.605Z,10.67
2022-11-13T09:26:35.106Z,10.62
2022-11-13T09:27:34.979Z,10.67
2022-11-13T09:28:34.991Z,10.67
2022-11-13T09:29:34.945Z,10.76
2022-11-13T09:30:34.952Z,10.72
2022-11-13T09:31:34.925Z,10.64
2022-11-13T09:32:34.941Z,10.67
2022-11-13T09:33:34.920Z,10.75
2022-11-13T09:34:34.933Z,10.72
2022-11-13T09:35:35.007Z,10.62
2022-11-13T09:36:34.929Z,10.72
2022-11-13T09:37:34.880Z,10.78
2022-11-13T09:38:34.867Z,10.80
2022-11-13T09:39:34.892Z,10.76
2022-11-13T09:40:34.874Z,10.78
2022-11-13T09:41:34.947Z,10.72
2022-11-13T09:42:34.929Z,10.82
2022-11-13T09:43:34.825Z,10.78
2022-11-13T09:44:34.815Z,10.72
2022-11-13T09:45:34.826Z,10.78
2022-11-13T09:46:34.785Z,10.73
2022-11-13T09:47:34.750Z,10.75
2022-11-13T09:48:34.755Z,10.78
2022-11-13T09:49:34.738Z,10.75
2022-11-13T09:50:43.217Z,10.86
2022-11-13T09:51:34.805Z,10.79
2022-11-13T09:52:34.756Z,10.93
2022-11-13T09:53:34.704Z,10.83
2022-11-13T09:54:34.751Z,10.70
2022-11-13T09:55:34.682Z,10.72
2022-11-13T09:56:34.675Z,10.72
2022-11-13T09:57:34.831Z,10.83
2022-11-13T09:58:34.660Z,10.95
2022-11-13T09:59:34.638Z,10.90
2022-11-13T10:00:34.626Z,10.83
2022-11-13T10:01:34.687Z,10.83
2022-11-13T10:02:34.602Z,10.87
2022-11-13T10:05:45.129Z,10.90
2022-11-13T10:06:53.657Z,10.83
2022-11-13T10:07:45.092Z,10.83
2022-11-13T10:08:52.938Z,10.90
2022-11-13T10:09:54.700Z,10.90
2022-11-13T10:11:56.696Z,10.91
2022-11-13T10:14:08.063Z,10.97
2022-11-13T10:15:16.639Z,10.90
2022-11-13T10:16:15.637Z,10.90
2022-11-13T10:17:16.341Z,10.98
2022-11-13T10:18:16.569Z,11.12
2022-11-13T10:19:18.306Z,10.97
2022-11-13T10:20:15.169Z,11.12
2022-11-13T10:21:15.488Z,11.11
2022-11-13T10:22:34.638Z,11.09
2022-11-13T10:23:08.933Z,11.15
2022-11-13T10:24:17.956Z,11.09
2022-11-13T10:25:15.454Z,11.11
2022-11-13T10:27:18.212Z,11.18
2022-11-13T10:29:28.635Z,11.23
2022-11-13T10:30:36.294Z,11.18
2022-11-13T10:31:36.403Z,11.25
2022-11-13T10:33:41.059Z,11.23
2022-11-13T10:34:40.987Z,11.28
2022-11-13T10:35:50.887Z,11.27
2022-11-13T10:36:52.197Z,11.23
2022-11-13T10:38:52.333Z,11.22
2022-11-13T10:41:03.158Z,11.18
2022-11-13T10:42:12.997Z,11.28
2022-11-13T10:43:11.587Z,11.28
2022-11-13T10:44:14.239Z,11.22
2022-11-13T10:45:27.185Z,11.19
2022-11-13T10:46:13.745Z,11.23
2022-11-13T10:48:14.447Z,11.22
2022-11-13T10:50:25.037Z,11.25
2022-11-13T10:52:43.263Z,11.33
2022-11-13T10:54:54.638Z,11.28
2022-11-13T10:56:04.365Z,11.38
2022-11-13T10:57:02.569Z,11.48
2022-11-13T10:58:05.790Z,11.37
2022-11-13T11:00:07.005Z,11.37
2022-11-13T11:01:14.630Z,11.38
2022-11-13T11:02:15.513Z,11.40
2022-11-13T11:04:19.255Z,11.38
2022-11-13T12:23:13.918Z,11.71
2022-11-13T12:24:13.781Z,11.70
2022-11-13T12:25:13.826Z,11.58
2022-11-13T12:26:13.801Z,11.58
2022-11-13T12:27:21.306Z,11.46
2022-11-13T12:28:22.310Z,11.52
2022-11-13T12:29:21.960Z,11.66
2022-11-13T12:30:14.149Z,11.62
2022-11-13T12:31:14.148Z,11.59
2022-11-13T12:32:13.952Z,11.54
2022-11-13T12:33:13.745Z,11.58
2022-11-13T12:34:13.664Z,11.58
2022-11-13T12:35:13.666Z,11.58
2022-11-13T12:36:13.670Z,11.58
2022-11-13T12:37:13.657Z,11.56
2022-11-13T12:38:13.632Z,11.58
2022-11-13T12:39:13.730Z,11.58
2022-11-13T12:40:13.613Z,11.61
2022-11-13T12:41:13.578Z,11.55
2022-11-13T12:42:13.587Z,11.58
2022-11-13T12:43:13.576Z,11.59
2022-11-13T12:44:13.559Z,11.56
2022-11-13T12:45:13.590Z,11.54
2022-11-13T12:46:13.529Z,11.58
2022-11-13T12:47:13.537Z,11.48
2022-11-13T12:48:13.507Z,11.52
2022-11-13T12:49:13.505Z,11.55
2022-11-13T12:50:13.491Z,11.61
2022-11-13T12:51:13.487Z,11.59
2022-11-13T12:52:13.466Z,11.62
2022-11-13T12:53:13.471Z,11.62
2022-11-13T12:54:13.450Z,11.64
2022-11-13T12:55:13.552Z,11.61
2022-11-13T12:56:13.450Z,11.58
2022-11-13T12:57:13.421Z,11.64
2022-11-13T12:58:13.413Z,11.71
2022-11-13T12:59:30.413Z,11.69
2022-11-13T13:01:24.506Z,11.76
2022-11-13T13:02:24.367Z,11.70
2022-11-13T13:03:24.386Z,11.76
2022-11-13T13:04:24.339Z,11.76
2022-11-13T13:05:24.351Z,11.77
2022-11-13T13:06:24.298Z,11.77
2022-11-13T13:07:24.432Z,11.77
2022-11-13T13:08:33.901Z,11.73
2022-11-13T13:09:24.385Z,11.80
2022-11-13T13:10:24.356Z,11.82
2022-11-13T13:11:24.238Z,11.82
2022-11-13T13:12:24.246Z,11.74
2022-11-13T13:13:24.806Z,11.80
2022-11-13T13:14:24.275Z,11.73
2022-11-13T13:15:24.189Z,11.73
2022-11-13T13:16:24.209Z,11.79
2022-11-13T13:17:24.219Z,11.73
2022-11-13T13:18:24.162Z,11.71
2022-11-13T13:19:24.168Z,11.77
2022-11-13T13:20:24.142Z,11.76
2022-11-13T13:21:24.130Z,11.79
2022-11-13T13:22:24.137Z,11.70
2022-11-13T13:23:24.128Z,11.74
2022-11-13T13:24:24.136Z,11.66
2022-11-13T13:25:24.140Z,11.64
2022-11-13T13:26:24.191Z,11.73
2022-11-13T13:27:24.089Z,11.71
2022-11-13T13:28:24.101Z,11.69
2022-11-13T13:29:24.123Z,11.76
2022-11-13T13:30:24.057Z,11.74
2022-11-13T13:31:24.025Z,11.74
2022-11-13T13:32:24.043Z,11.71
2022-11-13T13:33:24.009Z,11.74
2022-11-13T13:34:23.993Z,11.74
2022-11-13T13:35:23.987Z,11.66
2022-11-13T13:36:24.009Z,11.73
2022-11-13T13:37:23.984Z,11.71
2022-11-13T13:38:23.958Z,11.79
2022-11-13T13:39:23.945Z,11.76
2022-11-13T13:40:23.922Z,11.71
2022-11-13T13:41:23.947Z,11.70
2022-11-13T13:42:24.033Z,11.67
2022-11-13T13:43:23.883Z,11.73
2022-11-13T13:44:23.908Z,11.73
2022-11-13T13:45:25.685Z,11.71
2022-11-13T13:46:23.855Z,11.74
2022-11-13T13:47:23.875Z,11.74
2022-11-13T13:48:23.844Z,11.77
2022-11-13T13:49:23.821Z,11.71
2022-11-13T13:50:23.827Z,11.73
2022-11-13T13:51:23.804Z,11.69
2022-11-13T13:52:23.799Z,11.76
2022-11-13T13:53:23.842Z,11.76
2022-11-13T13:54:23.765Z,11.69
2022-11-13T13:55:23.788Z,11.74
2022-11-13T13:56:23.845Z,11.64
2022-11-13T13:57:23.734Z,11.73
2022-11-13T13:58:23.851Z,11.71
2022-11-13T13:59:23.733Z,11.71
2022-11-13T14:00:23.702Z,11.69
2022-11-13T14:01:23.724Z,11.74
2022-11-13T14:02:23.788Z,11.69
2022-11-13T14:03:23.698Z,11.71
2022-11-13T14:04:23.679Z,11.67
2022-11-13T14:05:23.658Z,11.58
2022-11-13T14:06:23.659Z,11.61
2022-11-13T14:07:23.787Z,11.58
2022-11-13T14:08:23.633Z,11.55
2022-11-13T14:09:23.656Z,11.56
2022-11-13T14:10:23.596Z,11.51
2022-11-13T14:11:23.592Z,11.48
2022-11-13T14:12:32.305Z,11.52
2022-11-13T14:13:23.670Z,11.43
2022-11-13T14:14:23.676Z,11.55
2022-11-13T14:15:23.600Z,11.46
2022-11-13T14:16:23.588Z,11.56
2022-11-13T14:17:31.424Z,11.49
2022-11-13T14:18:23.550Z,11.46
2022-11-13T14:19:23.549Z,11.54
2022-11-13T14:20:23.597Z,11.38
2022-11-13T14:21:23.514Z,11.40
2022-11-13T14:22:23.497Z,11.30
2022-11-13T14:23:23.468Z,11.23
2022-11-13T14:24:23.466Z,11.22
2022-11-13T14:25:23.624Z,11.23
2022-11-13T14:26:23.439Z,11.25
2022-11-13T14:27:23.425Z,11.25
2022-11-13T14:28:23.426Z,11.19
2022-11-13T14:29:23.409Z,11.13
2022-11-13T14:30:34.578Z,11.18
2022-11-13T14:31:23.390Z,11.15
2022-11-13T14:32:23.399Z,11.09
2022-11-13T14:33:23.362Z,11.11
2022-11-13T14:34:31.987Z,11.08
2022-11-13T14:35:32.952Z,11.00
2022-11-13T14:36:23.441Z,10.98
2022-11-13T14:37:23.349Z,10.97
2022-11-13T14:38:23.307Z,10.95
2022-11-13T14:39:23.310Z,10.95
2022-11-13T14:40:23.287Z,10.90
2022-11-13T14:41:23.288Z,10.82
2022-11-13T14:42:23.280Z,10.86
2022-11-13T14:43:23.257Z,10.93
2022-11-13T14:44:26.756Z,10.90
2022-11-13T14:45:24.231Z,10.97